createdAt,value
2022-12-01T00:03:11.765Z,102039.88
2022-12-01T00:06:39.573Z,102040.27
2022-12-01T00:10:25.480Z,102037.27
2022-12-01T00:13:52.382Z,102038.44
2022-12-01T00:17:19.216Z,102036.36
2022-12-01T00:20:49.119Z,102033.56
2022-12-01T00:24:16.265Z,102036.13
2022-12-01T00:27:43.101Z,102039.48
2022-12-01T00:31:11.558Z,102032.46
2022-12-01T00:34:39.076Z,102029.55
2022-12-01T00:38:06.567Z,102026.98
2022-12-01T00:41:33.730Z,102028.95
2022-12-01T00:45:00.444Z,102025.23
2022-12-01T00:48:27.310Z,102023.11
2022-12-01T00:51:54.090Z,102019.31
2022-12-01T00:55:20.893Z,102022.33
2022-12-01T00:58:47.627Z,102020.02
2022-12-01T01:02:14.718Z,102017.95
2022-12-01T01:05:43.542Z,102016.35
2022-12-01T01:09:10.614Z,102016.89
2022-12-01T01:12:38.397Z,102015.61
2022-12-01T01:16:07.891Z,102017.99
2022-12-01T01:19:34.850Z,102018.61
2022-12-01T01:23:01.603Z,102019.83
2022-12-01T01:26:30.349Z,102016.77
2022-12-01T01:29:57.300Z,102011.47
2022-12-01T01:33:24.581Z,102012.02
2022-12-01T01:36:51.324Z,102014.59
2022-12-01T01:40:18.398Z,102010.29
2022-12-01T01:43:48.229Z,102006.71
2022-12-01T01:47:17.032Z,102007.61
2022-12-01T01:50:44.548Z,102007.87
2022-12-01T01:54:18.764Z,102010.48
2022-12-01T01:57:47.153Z,102009.20
2022-12-01T02:01:14.101Z,102009.48
2022-12-01T02:04:46.162Z,102007.64
2022-12-01T02:08:13.664Z,102013.80
2022-12-01T02:12:01.340Z,102014.33
2022-12-01T02:15:34.850Z,102012.02
2022-12-01T02:19:12.446Z,102013.45
2022-12-01T02:22:53.732Z,102013.95
2022-12-01T02:26:39.681Z,102013.03
2022-12-01T02:30:14.065Z,102017.19
2022-12-01T02:33:44.908Z,102014.79
2022-12-01T02:37:19.085Z,102012.34
2022-12-01T02:40:53.465Z,102010.21
2022-12-01T02:44:23.637Z,102014.11
2022-12-01T02:47:53.446Z,102013.94
2022-12-01T02:51:25.438Z,102014.27
2022-12-01T02:54:53.051Z,102012.62
2022-12-01T02:58:20.309Z,102007.31
2022-12-01T03:02:01.999Z,102012.80
2022-12-01T03:05:38.439Z,102012.98
2022-12-01T03:09:17.551Z,102007.88
2022-12-01T03:13:00.921Z,102007.31
2022-12-01T03:16:34.755Z,102002.86
2022-12-01T03:20:08.776Z,102000.98
2022-12-01T03:23:40.934Z,102002.92
2022-12-01T03:27:10.906Z,102003.79
2022-12-01T03:30:40.316Z,101999.45
2022-12-01T03:34:12.340Z,101999.72
2022-12-01T03:37:44.229Z,101998.55
2022-12-01T03:41:16.407Z,101995.83
2022-12-01T03:44:47.909Z,102000.84
2022-12-01T03:48:15.588Z,101998.92
2022-12-01T03:51:51.798Z,101991.94
2022-12-01T03:55:25.695Z,101988.40
2022-12-01T03:58:57.700Z,101984.84
2022-12-01T04:02:27.927Z,101988.33
2022-12-01T04:05:55.613Z,101983.71
2022-12-01T04:09:22.471Z,101979.35
2022-12-01T04:12:49.828Z,101976.46
2022-12-01T04:16:16.576Z,101977.17
2022-12-01T04:19:43.632Z,101977.79
2022-12-01T04:23:10.293Z,101981.59
2022-12-01T04:26:38.656Z,101983.84
2022-12-01T04:30:06.831Z,101982.39
2022-12-01T04:33:34.184Z,101980.91
2022-12-01T04:37:01.382Z,101982.38
2022-12-01T04:40:28.312Z,101982.06
2022-12-01T04:43:57.218Z,101986.88
2022-12-01T04:47:23.999Z,101988.95
2022-12-01T04:50:52.655Z,101990.94
2022-12-01T04:54:20.113Z,101993.36
2022-12-01T04:57:46.790Z,101992.61
2022-12-01T05:01:16.257Z,101991.45
2022-12-01T05:04:42.092Z,101995.90
2022-12-01T05:08:08.932Z,101996.23
2022-12-01T05:11:36.920Z,101995.98
2022-12-01T05:15:03.715Z,101992.84
2022-12-01T05:18:30.799Z,101994.98
2022-12-01T05:21:57.861Z,101991.44
2022-12-01T05:25:25.094Z,101991.41
2022-12-01T05:28:52.414Z,101989.38
2022-12-01T05:32:19.448Z,101995.68
2022-12-01T05:35:47.100Z,101990.02
2022-12-01T05:39:14.284Z,101994.21
2022-12-01T05:42:41.002Z,101993.77
2022-12-01T05:46:08.064Z,101999.91
2022-12-01T05:49:35.241Z,101998.77
2022-12-01T05:53:02.105Z,101998.53
2022-12-01T05:56:29.108Z,102003.42
2022-12-01T05:59:55.877Z,102005.29
2022-12-01T06:03:22.613Z,102002.27
2022-12-01T06:06:49.537Z,102004.56
2022-12-01T06:10:16.223Z,102002.42
2022-12-01T06:13:43.643Z,102003.24
2022-12-01T06:17:10.461Z,102007.04
2022-12-01T06:20:37.481Z,102012.12
2022-12-01T06:24:04.490Z,102010.69
2022-12-01T06:27:31.601Z,102011.55
2022-12-01T06:31:03.251Z,102016.16
2022-12-01T06:34:31.161Z,102018.89
2022-12-01T06:37:57.918Z,102020.73
2022-12-01T06:41:24.612Z,102022.02
2022-12-01T06:44:51.755Z,102025.06
2022-12-01T06:48:18.680Z,102024.19
2022-12-01T06:51:45.698Z,102027.23
2022-12-01T06:55:13.750Z,102031.29
2022-12-01T06:58:40.778Z,102031.77
2022-12-01T07:02:07.549Z,102035.57
2022-12-01T07:05:34.958Z,102038.50
2022-12-01T07:09:01.668Z,102035.16
2022-12-01T07:12:31.344Z,102037.04
2022-12-01T07:15:58.833Z,102035.90
2022-12-01T07:19:25.553Z,102038.92
2022-12-01T07:22:52.644Z,102042.35
2022-12-01T07:26:20.615Z,102046.35
2022-12-01T07:29:48.052Z,102052.11
2022-12-01T07:33:15.182Z,102054.78
2022-12-01T07:36:42.292Z,102054.38
2022-12-01T07:40:11.749Z,102055.82
2022-12-01T07:43:39.467Z,102046.73
2022-12-01T07:47:06.480Z,102046.84
2022-12-01T07:50:33.542Z,102051.33
2022-12-01T07:54:06.448Z,102051.13
2022-12-01T07:57:33.132Z,102052.52
2022-12-01T08:01:00.467Z,102055.60
2022-12-01T08:04:27.798Z,102059.27
2022-12-01T08:07:56.214Z,102059.55
2022-12-01T08:11:25.496Z,102062.81
2022-12-01T08:14:52.650Z,102066.90
2022-12-01T08:18:19.506Z,102065.41
2022-12-01T08:21:46.176Z,102067.49
2022-12-01T08:25:13.072Z,102070.36
2022-12-01T08:28:40.560Z,102068.40
2022-12-01T08:32:08.185Z,102063.52
2022-12-01T08:35:37.930Z,102058.91
2022-12-01T08:39:05.131Z,102059.29
2022-12-01T08:42:32.065Z,102058.83
2022-12-01T08:46:01.814Z,102061.66
2022-12-01T08:49:28.609Z,102053.51
2022-12-01T08:52:55.655Z,102054.89
2022-12-01T08:56:25.018Z,102055.40
2022-12-01T08:59:52.124Z,102053.65
2022-12-01T09:03:19.003Z,102050.79
2022-12-01T09:06:47.992Z,102051.59
2022-12-01T09:10:14.830Z,102052.71
2022-12-01T09:13:43.339Z,102047.95
2022-12-01T09:17:10.752Z,102044.89
2022-12-01T09:20:37.709Z,102047.97
2022-12-01T09:24:05.215Z,102049.02
2022-12-01T09:27:32.049Z,102046.45
2022-12-01T09:31:04.597Z,102045.82
2022-12-01T09:34:31.935Z,102044.09
2022-12-01T09:37:58.842Z,102041.88
2022-12-01T09:41:28.081Z,102041.09
2022-12-01T09:44:57.713Z,102034.16
2022-12-01T09:48:28.003Z,102034.35
2022-12-01T09:51:56.161Z,102029.36
2022-12-01T09:55:26.100Z,102027.00
2022-12-01T09:58:56.575Z,102022.95
2022-12-01T10:02:35.752Z,102020.73
2022-12-01T10:06:26.902Z,102013.85
2022-12-01T10:09:58.995Z,102012.09
2022-12-01T10:13:28.774Z,102009.76
2022-12-01T10:17:00.013Z,102007.24
2022-12-01T10:20:33.011Z,102005.45
2022-12-01T10:24:13.630Z,102005.36
2022-12-01T10:27:49.116Z,102002.42
2022-12-01T10:31:21.804Z,102004.73
2022-12-01T10:34:49.642Z,102003.30
2022-12-01T10:38:23.950Z,102001.85
2022-12-01T10:41:52.805Z,101998.71
2022-12-01T10:45:23.469Z,101997.67
2022-12-01T10:48:57.124Z,101995.27
2022-12-01T10:52:38.334Z,101995.36
2022-12-01T10:56:13.154Z,101989.84
2022-12-01T10:59:45.115Z,101989.84
2022-12-01T11:03:22.916Z,101983.91
2022-12-01T11:06:53.205Z,101982.99
2022-12-01T11:10:23.659Z,101984.64
2022-12-01T11:13:50.333Z,101984.04
2022-12-01T11:17:29.874Z,101981.83
2022-12-01T11:21:11.029Z,101978.84
2022-12-01T11:24:44.432Z,101983.36
2022-12-01T11:28:21.901Z,101985.64
2022-12-01T11:31:52.951Z,101981.71
2022-12-01T11:35:22.377Z,101979.27
2022-12-01T11:38:50.468Z,101980.64
2022-12-01T11:42:24.196Z,101983.70
2022-12-01T11:45:51.998Z,101987.66
2022-12-01T11:49:21.662Z,101982.91
2022-12-01T11:52:48.332Z,101978.42
2022-12-01T11:56:23.311Z,101977.40
2022-12-01T11:59:50.428Z,101977.30
2022-12-01T12:03:34.351Z,101973.90
2022-12-01T12:07:10.284Z,101976.25
2022-12-01T12:10:49.055Z,101977.11
2022-12-01T12:14:30.585Z,101978.38
2022-12-01T12:18:12.504Z,101972.67
2022-12-01T12:21:49.824Z,101964.30
2022-12-01T12:25:28.649Z,101956.19
2022-12-01T12:29:13.602Z,101959.95
2022-12-01T12:33:04.563Z,101961.52
2022-12-01T12:36:41.978Z,101962.52
2022-12-01T12:40:26.089Z,101964.65
2022-12-01T12:44:10.605Z,101970.11
2022-12-01T12:47:59.982Z,101965.65
2022-12-01T12:51:31.719Z,101964.71
2022-12-01T12:55:04.437Z,101964.30
2022-12-01T12:58:39.051Z,101963.32
2022-12-01T13:02:14.067Z,101967.55
2022-12-01T13:05:46.072Z,101963.77
2022-12-01T13:09:16.854Z,101959.20
2022-12-01T13:12:52.440Z,101958.24
2022-12-01T13:16:24.475Z,101958.49
2022-12-01T13:19:52.454Z,101961.28
2022-12-01T13:23:21.871Z,101958.15
2022-12-01T13:26:50.989Z,101954.83
2022-12-01T13:30:23.616Z,101950.05
2022-12-01T13:34:01.980Z,101951.73
2022-12-01T13:37:34.651Z,101948.46
2022-12-01T13:41:23.788Z,101949.96
2022-12-01T13:44:55.855Z,101951.88
2022-12-01T13:48:50.370Z,101955.10
2022-12-01T13:52:30.042Z,101955.96
2022-12-01T13:55:58.304Z,101958.21
2022-12-01T13:59:58.603Z,101952.66
2022-12-01T14:03:57.412Z,101953.23
2022-12-01T14:07:31.402Z,101951.57
2022-12-01T14:11:02.046Z,101953.48
2022-12-01T14:14:35.752Z,101954.23
2022-12-01T14:18:06.734Z,101956.69
2022-12-01T14:21:47.829Z,101954.84
2022-12-01T14:25:29.185Z,101951.02
2022-12-01T14:29:29.945Z,101953.90
2022-12-01T14:33:34.245Z,101952.61
2022-12-01T14:37:07.940Z,101955.58
2022-12-01T14:40:35.768Z,101957.64
2022-12-01T14:44:07.664Z,101956.93
2022-12-01T14:47:45.757Z,101958.02
2022-12-01T14:51:23.915Z,101954.87
2022-12-01T14:54:53.161Z,101954.85
2022-12-01T14:58:24.285Z,101959.80
2022-12-01T15:01:54.116Z,101956.49
2022-12-01T15:05:23.078Z,101951.59
2022-12-01T15:09:32.194Z,101950.84
2022-12-01T15:12:53.670Z,101950.02
2022-12-01T15:16:23.265Z,101949.98
2022-12-01T15:19:48.875Z,101951.84
2022-12-01T15:23:18.187Z,101947.66
2022-12-01T15:26:51.832Z,101945.83
2022-12-01T15:30:19.914Z,101946.14
2022-12-01T15:33:52.240Z,101948.56
2022-12-01T15:37:21.734Z,101946.85
2022-12-01T15:41:21.032Z,101948.94
2022-12-01T15:44:36.394Z,101947.92
2022-12-01T15:48:15.324Z,101946.29
2022-12-01T15:51:42.646Z,101947.49
2022-12-01T15:55:23.438Z,101949.29
2022-12-01T15:58:50.662Z,101949.24
2022-12-01T16:02:28.220Z,101948.36
2022-12-01T16:05:57.177Z,101949.28
2022-12-01T16:09:28.088Z,101952.04
2022-12-01T16:12:54.792Z,101951.27
2022-12-01T16:16:36.855Z,101952.61
2022-12-01T16:20:26.703Z,101954.63
2022-12-01T16:24:02.042Z,101952.19
2022-12-01T16:27:31.129Z,101946.02
2022-12-01T16:30:58.390Z,101946.86
2022-12-01T16:34:45.300Z,101952.48
2022-12-01T16:38:20.340Z,101954.75
2022-12-01T16:41:48.014Z,101958.30
2022-12-01T16:45:17.615Z,101960.59
2022-12-01T16:48:44.430Z,101959.24
2022-12-01T16:56:00.999Z,101949.96
2022-12-01T16:59:28.088Z,101956.95
2022-12-01T17:02:54.931Z,101952.20
2022-12-01T17:06:22.281Z,101948.52
2022-12-01T17:09:48.980Z,101946.67
2022-12-01T17:13:15.959Z,101946.77
2022-12-01T17:16:42.821Z,101947.14
2022-12-01T17:20:13.849Z,101951.75
2022-12-01T17:23:42.450Z,101952.29
2022-12-01T17:27:09.121Z,101950.98
2022-12-01T17:30:36.919Z,101959.19
2022-12-01T17:34:03.946Z,101960.75
2022-12-01T17:37:31.071Z,101960.19
2022-12-01T17:41:06.915Z,101961.22
2022-12-01T17:44:33.808Z,101961.30
2022-12-01T17:48:00.779Z,101963.77
2022-12-01T17:51:28.357Z,101963.89
2022-12-01T17:54:56.516Z,101960.73
2022-12-01T17:58:23.530Z,101955.14
2022-12-01T18:01:50.622Z,101955.02
2022-12-01T18:05:18.000Z,101957.61
2022-12-01T18:08:45.500Z,101954.67
2022-12-01T18:12:12.205Z,101955.20
2022-12-01T18:15:41.548Z,101959.03
2022-12-01T18:19:08.548Z,101959.84
2022-12-01T18:22:35.167Z,101960.66
2022-12-01T18:26:08.653Z,101955.32
2022-12-01T18:29:39.028Z,101957.50
2022-12-01T18:33:08.687Z,101959.94
2022-12-01T18:36:36.028Z,101963.88
2022-12-01T18:40:05.058Z,101964.33
2022-12-01T18:43:33.605Z,101959.48
2022-12-01T18:47:02.803Z,101958.52
2022-12-01T18:50:29.811Z,101957.34
2022-12-01T18:53:59.160Z,101955.94
2022-12-01T18:57:24.664Z,101958.05
2022-12-01T19:00:51.560Z,101960.56
2022-12-01T19:04:19.272Z,101955.77
2022-12-01T19:07:46.168Z,101946.41
2022-12-01T19:11:12.983Z,101944.85
2022-12-01T19:14:39.766Z,101942.82
2022-12-01T19:18:07.730Z,101944.60
2022-12-01T19:21:35.283Z,101944.58
2022-12-01T19:25:03.039Z,101940.80
2022-12-01T19:28:31.551Z,101942.50
2022-12-01T19:31:58.746Z,101942.20
2022-12-01T19:35:25.585Z,101944.77
2022-12-01T19:38:53.434Z,101945.17
2022-12-01T19:42:20.663Z,101945.29
2022-12-01T19:45:47.817Z,101943.36
2022-12-01T19:49:15.008Z,101939.91
2022-12-01T19:52:41.917Z,101938.56
2022-12-01T19:56:10.584Z,101944.89
2022-12-01T19:59:37.365Z,101948.13
2022-12-01T20:03:04.312Z,101946.58
2022-12-01T20:06:34.374Z,101948.25
2022-12-01T20:10:01.003Z,101946.31
2022-12-01T20:13:28.469Z,101946.70
2022-12-01T20:16:57.008Z,101949.20
2022-12-01T20:20:24.627Z,101948.44
2022-12-01T20:23:55.490Z,101943.36
2022-12-01T20:27:22.196Z,101941.20
2022-12-01T20:30:48.871Z,101938.70
2022-12-01T20:34:19.293Z,101939.89
2022-12-01T20:37:46.234Z,101934.88
2022-12-01T20:41:16.104Z,101931.80
2022-12-01T20:44:43.235Z,101932.02
2022-12-01T20:48:10.476Z,101930.58
2022-12-01T20:51:37.555Z,101926.06
2022-12-01T20:55:04.354Z,101929.11
2022-12-01T20:58:36.033Z,101926.01
2022-12-01T21:02:04.588Z,101926.10
2022-12-01T21:05:33.116Z,101930.55
2022-12-01T21:08:59.913Z,101927.40
2022-12-01T21:12:47.453Z,101927.52
2022-12-01T21:16:23.292Z,101929.07
2022-12-01T21:19:56.486Z,101928.33
2022-12-01T21:23:25.373Z,101924.77
2022-12-01T21:26:55.119Z,101927.80
2022-12-01T21:30:21.960Z,101929.19
2022-12-01T21:33:48.708Z,101936.05
2022-12-01T21:37:22.204Z,101935.14
2022-12-01T21:40:49.371Z,101934.69
2022-12-01T21:44:19.678Z,101937.65
2022-12-01T21:47:46.486Z,101933.55
2022-12-01T21:51:20.241Z,101927.50
2022-12-01T21:54:47.585Z,101925.06
2022-12-01T21:58:28.215Z,101923.11
2022-12-01T22:01:57.302Z,101926.07
2022-12-01T22:05:36.455Z,101916.39
2022-12-01T22:09:15.349Z,101919.05
2022-12-01T22:12:42.112Z,101911.21
2022-12-01T22:16:14.475Z,101904.11
2022-12-01T22:19:46.314Z,101905.71
2022-12-01T22:23:15.309Z,101907.11
2022-12-01T22:26:45.484Z,101904.82
2022-12-01T22:30:21.301Z,101900.56
2022-12-01T22:33:47.936Z,101907.41
2022-12-01T22:37:20.499Z,101904.41
2022-12-01T22:40:54.969Z,101907.23
2022-12-01T22:44:21.577Z,101905.25
2022-12-01T22:47:48.747Z,101904.97
2022-12-01T22:51:27.395Z,101905.05
2022-12-01T22:54:54.218Z,101905.80
2022-12-01T22:58:25.580Z,101909.07
2022-12-01T23:01:55.898Z,101901.94
2022-12-01T23:05:27.488Z,101900.34
2022-12-01T23:08:54.275Z,101899.43
2022-12-01T23:12:28.671Z,101896.64
2022-12-01T23:15:57.008Z,101891.73
2022-12-01T23:19:23.878Z,101890.05
2022-12-01T23:22:53.513Z,101887.41
2022-12-01T23:26:18.728Z,101885.53
2022-12-01T23:29:45.851Z,101882.02
2022-12-01T23:33:27.287Z,101881.25
2022-12-01T23:36:54.227Z,101884.63
2022-12-01T23:40:24.515Z,101883.53
2022-12-01T23:43:51.732Z,101889.41
2022-12-01T23:47:23.197Z,101886.59
2022-12-01T23:50:51.856Z,101886.41
2022-12-01T23:54:22.155Z,101885.06
2022-12-01T23:57:49.502Z,101877.95
